Strona główna
METAR-TAF:

METAR-TAF

Lotnisko :

Sanford Regional Airport

Sanford, Maine, Stany Zjednoczone

Szerokość geograficzna: 43-24N, Długość geograficzna: 070-43W, wysokość: 74 m

Aktualna obserwacja pogody

Raport powstał 1 godzina i 7 minut temu, godzina 15:56 UTC
Cisza
Temperatura -1°C
Wilgotność 74%
Ciśnienie 1002 hPa
Widzialność: 16.1 km

METAR: KSFM 221556Z AUTO 00000KT 10SM M01/M05 A2960 RMK AO2 SLP030 T10111050 FZRANO

czas: 12:03 (17:03 UTC)


TAF: brakujący

Obserwacja i prognoza pogody dla ponad 4000 lotnisk (raport METAR i TAF).

Dostępne stacje oznaczono żółtymi i czerwonymi punktami na mapie.

Najedź kursorem aby zobaczyć nazwę stacji.

Kliknij aby zobaczyć obserwacje i prognozy pogody.

Aby zmienić mapę: kliknij na zielony przycisk z czarnym krzyżykiem, aby powiększyć; na zielony przycisk z myślnikiem, aby pomniejszyć; na zielone strzałki, aby przejść do map sąsiednich.


METAR-TAF: